Time;durP1;ratioP1;P1;durP2;ratioP2;P2;SDS_P1;SDS_P2;PMS_P1;PMS_P2;Temp;Humidity;BMP_temperature;BMP_pressure;BME280_temperature;BME280_humidity;BME280_pressure;Samples;Min_cycle;Max_cycle;Signal;HPM_P1;HPM_P2
2022/03/20 00:00:15;;;;;;;9.95;3.67;;;;;;;;;;5050728;27;95364;-75
2022/03/20 00:02:41;;;;;;;8.75;3.47;;;;;;;;;;5050965;27;96905;-76
2022/03/20 00:05:08;;;;;;;6.70;3.25;;;;;;;;;;5052984;27;97420;-76
2022/03/20 00:07:35;;;;;;;6.40;3.47;;;;;;;;;;5049961;27;96968;-75
2022/03/20 00:10:03;;;;;;;9.70;3.58;;;;;;;;;;5050465;27;97988;-75
2022/03/20 00:12:29;;;;;;;8.48;4.30;;;;;;;;;;5064012;27;95332;-74
2022/03/20 00:14:55;;;;;;;7.93;3.70;;;;;;;;;;5071424;27;96901;-75
2022/03/20 00:17:22;;;;;;;8.32;4.05;;;;;;;;;;5070846;27;97371;-77
2022/03/20 00:19:49;;;;;;;8.45;4.38;;;;;;;;;;5070737;27;95499;-76
2022/03/20 00:22:15;;;;;;;7.85;4.03;;;;;;;;;;5070977;27;96913;-77
2022/03/20 00:24:43;;;;;;;10.60;4.47;;;;;;;;;;5072409;27;97125;-77
2022/03/20 00:27:12;;;;;;;9.45;4.40;;;;;;;;;;5070163;27;96577;-76
2022/03/20 00:29:39;;;;;;;9.15;4.65;;;;;;;;;;5071057;27;97712;-76
2022/03/20 00:32:06;;;;;;;10.15;4.82;;;;;;;;;;5070809;27;95416;-75
2022/03/20 00:34:33;;;;;;;13.77;5.05;;;;;;;;;;5070443;27;96966;-74
2022/03/20 00:36:59;;;;;;;9.57;4.53;;;;;;;;;;5063236;27;97561;-77
2022/03/20 00:39:25;;;;;;;12.32;5.18;;;;;;;;;;5049582;27;95788;-78
2022/03/20 00:41:52;;;;;;;12.52;5.70;;;;;;;;;;5050659;27;97070;-77
2022/03/20 00:44:18;;;;;;;8.82;5.30;;;;;;;;;;5049943;27;97668;-77
2022/03/20 00:46:44;;;;;;;11.98;5.40;;;;;;;;;;5053209;27;95446;-77
2022/03/20 00:49:11;;;;;;;13.75;5.57;;;;;;;;;;5049955;27;97357;-75
2022/03/20 00:51:38;;;;;;;12.98;6.22;;;;;;;;;;5050405;27;95792;-76
2022/03/20 00:54:04;;;;;;;14.48;5.40;;;;;;;;;;5049100;27;97078;-75
2022/03/20 00:56:30;;;;;;;10.68;6.20;;;;;;;;;;5062140;27;97408;-75
2022/03/20 00:58:57;;;;;;;12.18;6.80;;;;;;;;;;5070569;27;95552;-77
2022/03/20 01:01:23;;;;;;;15.80;6.78;;;;;;;;;;5070067;27;97083;-77
2022/03/20 01:03:51;;;;;;;11.55;6.50;;;;;;;;;;5069371;27;97554;-76
2022/03/20 01:06:18;;;;;;;13.10;6.13;;;;;;;;;;5070209;27;95318;-78
2022/03/20 01:08:44;;;;;;;13.35;6.57;;;;;;;;;;5073051;27;96896;-77
2022/03/20 01:11:10;;;;;;;13.20;6.35;;;;;;;;;;5069695;27;95618;-76
2022/03/20 01:13:36;;;;;;;13.93;7.05;;;;;;;;;;5070434;27;96836;-75
2022/03/20 01:16:04;;;;;;;12.63;6.72;;;;;;;;;;5069496;27;97464;-75
2022/03/20 01:18:30;;;;;;;11.20;6.55;;;;;;;;;;5070327;27;95576;-77
2022/03/20 01:20:56;;;;;;;10.10;5.95;;;;;;;;;;5065852;27;97191;-76
2022/03/20 01:23:23;;;;;;;14.68;7.07;;;;;;;;;;5048916;27;97315;-76
2022/03/20 01:25:50;;;;;;;16.83;7.32;;;;;;;;;;5049330;27;95889;-77
2022/03/20 01:28:17;;;;;;;14.07;7.18;;;;;;;;;;5049180;27;95731;-77
2022/03/20 01:30:44;;;;;;;15.90;7.38;;;;;;;;;;5052322;27;97457;-76
2022/03/20 01:33:11;;;;;;;14.35;7.80;;;;;;;;;;5049379;27;96932;-75
2022/03/20 01:35:37;;;;;;;12.50;6.20;;;;;;;;;;5048956;27;97300;-75
2022/03/20 01:38:05;;;;;;;12.82;6.68;;;;;;;;;;5049355;27;95284;-76
2022/03/20 01:40:31;;;;;;;11.52;6.30;;;;;;;;;;5049484;27;97103;-75
2022/03/20 01:42:58;;;;;;;13.50;7.40;;;;;;;;;;5049099;27;97688;-76
2022/03/20 01:45:24;;;;;;;12.90;7.13;;;;;;;;;;5049849;27;95666;-77
2022/03/20 01:47:51;;;;;;;12.43;7.75;;;;;;;;;;5049501;27;96830;-77
2022/03/20 01:50:18;;;;;;;14.90;7.30;;;;;;;;;;5051529;27;97630;-77
2022/03/20 01:52:45;;;;;;;18.30;7.78;;;;;;;;;;5072784;27;95516;-75
2022/03/20 01:55:12;;;;;;;15.48;7.22;;;;;;;;;;5068424;27;97330;-77
2022/03/20 01:57:39;;;;;;;13.68;6.30;;;;;;;;;;5069500;27;95723;-76
2022/03/20 02:00:06;;;;;;;11.75;6.55;;;;;;;;;;5069656;27;96841;-75
2022/03/20 02:02:32;;;;;;;11.30;6.50;;;;;;;;;;5069360;27;97330;-76
2022/03/20 02:04:59;;;;;;;15.00;6.55;;;;;;;;;;5067116;27;95755;-75
2022/03/20 02:07:26;;;;;;;13.35;6.90;;;;;;;;;;5069475;27;96958;-76
2022/03/20 02:09:53;;;;;;;18.90;7.28;;;;;;;;;;5059857;27;97739;-76
2022/03/20 02:12:19;;;;;;;10.32;6.13;;;;;;;;;;5048524;27;95392;-76
2022/03/20 02:14:45;;;;;;;14.93;5.53;;;;;;;;;;5066310;27;95793;-77
2022/03/20 02:17:12;;;;;;;15.13;5.93;;;;;;;;;;5071897;27;95303;-76
2022/03/20 02:19:39;;;;;;;10.63;6.05;;;;;;;;;;5066739;27;96834;-75
2022/03/20 02:22:06;;;;;;;17.25;6.70;;;;;;;;;;5052063;27;97282;-76
2022/03/20 02:24:41;;;;;;;11.77;5.93;;;;;;;;;;5052343;27;95676;-76
2022/03/20 02:27:18;;;;;;;11.25;5.72;;;;;;;;;;5051778;27;96397;-76
2022/03/20 02:29:45;;;;;;;13.70;6.28;;;;;;;;;;5057701;27;97541;-76
2022/03/20 02:32:12;;;;;;;10.02;6.03;;;;;;;;;;5059645;27;95672;-76
2022/03/20 02:34:39;;;;;;;11.95;5.88;;;;;;;;;;5076042;27;96646;-77
2022/03/20 02:37:06;;;;;;;13.57;5.95;;;;;;;;;;5071886;27;95366;-75
2022/03/20 02:39:33;;;;;;;12.68;6.32;;;;;;;;;;5071247;27;96844;-76
2022/03/20 02:42:00;;;;;;;15.98;6.72;;;;;;;;;;5051403;27;97446;-76
2022/03/20 02:44:46;;;;;;;12.57;6.47;;;;;;;;;;5051969;27;95484;-77
2022/03/20 02:47:12;;;;;;;12.82;6.68;;;;;;;;;;5051527;27;97121;-76
2022/03/20 02:49:38;;;;;;;16.02;6.88;;;;;;;;;;5052416;27;97309;-77
2022/03/20 02:52:06;;;;;;;14.90;6.13;;;;;;;;;;5070956;27;95446;-76
2022/03/20 02:54:33;;;;;;;13.23;6.57;;;;;;;;;;5070167;27;97050;-76
2022/03/20 02:57:04;;;;;;;12.25;5.95;;;;;;;;;;5075334;27;97368;-76
2022/03/20 02:59:30;;;;;;;15.25;6.63;;;;;;;;;;5072914;27;96839;-76
2022/03/20 03:01:57;;;;;;;16.40;7.43;;;;;;;;;;5051266;27;96634;-74
2022/03/20 03:04:24;;;;;;;12.63;7.50;;;;;;;;;;5051860;27;95694;-77
2022/03/20 03:06:50;;;;;;;13.57;6.95;;;;;;;;;;5051643;27;96953;-77
2022/03/20 03:12:04;;;;;;;11.77;6.20;;;;;;;;;;5052523;27;95340;-74
2022/03/20 03:17:27;;;;;;;14.98;7.22;;;;;;;;;;5051087;27;96236;-75
2022/03/20 03:19:54;;;;;;;15.25;7.90;;;;;;;;;;5066501;27;95940;-75
2022/03/20 03:22:21;;;;;;;17.90;8.10;;;;;;;;;;5069177;27;97282;-76
2022/03/20 03:24:47;;;;;;;14.70;7.60;;;;;;;;;;5064873;27;95439;-76
2022/03/20 03:27:13;;;;;;;13.50;7.80;;;;;;;;;;5050540;27;96905;-76
2022/03/20 03:29:40;;;;;;;13.50;7.55;;;;;;;;;;5051976;27;97369;-75
2022/03/20 03:32:06;;;;;;;15.18;8.25;;;;;;;;;;5050797;27;95713;-76
2022/03/20 03:37:20;;;;;;;18.33;8.35;;;;;;;;;;5061389;27;97096;-75
2022/03/20 03:39:46;;;;;;;17.63;8.50;;;;;;;;;;5067321;27;96633;-77
2022/03/20 03:42:14;;;;;;;18.10;8.80;;;;;;;;;;5072644;27;97092;-76
2022/03/20 03:44:40;;;;;;;15.30;8.63;;;;;;;;;;5067428;27;96185;-75
2022/03/20 03:47:07;;;;;;;18.55;8.68;;;;;;;;;;5050970;27;96958;-76
2022/03/20 03:49:34;;;;;;;14.18;8.38;;;;;;;;;;5062268;27;97282;-77
2022/03/20 03:52:01;;;;;;;20.13;9.85;;;;;;;;;;5051148;27;95564;-76
2022/03/20 03:54:27;;;;;;;15.93;8.95;;;;;;;;;;5059002;27;96608;-77
2022/03/20 03:56:54;;;;;;;21.38;8.90;;;;;;;;;;5070248;27;97486;-77
2022/03/20 03:59:26;;;;;;;25.70;9.57;;;;;;;;;;5070526;27;95764;-75
2022/03/20 04:01:58;;;;;;;32.60;9.55;;;;;;;;;;5071895;27;96432;-75
2022/03/20 04:04:25;;;;;;;;;;;;;;;;;;5074321;27;97625;-76
2022/03/20 04:06:52;;;;;;;17.77;8.50;;;;;;;;;;5069686;27;127771;-77
2022/03/20 04:09:19;;;;;;;21.45;9.75;;;;;;;;;;5070774;27;97370;-76
2022/03/20 04:11:50;;;;;;;19.15;10.07;;;;;;;;;;5070761;27;95648;-77
2022/03/20 04:14:17;;;;;;;18.20;9.50;;;;;;;;;;5069174;27;95937;-78
2022/03/20 04:16:43;;;;;;;18.80;9.88;;;;;;;;;;5069566;27;96217;-77
2022/03/20 04:19:10;;;;;;;18.92;10.57;;;;;;;;;;5063270;27;95682;-78
2022/03/20 04:21:37;;;;;;;23.13;10.35;;;;;;;;;;5066577;27;97051;-77
2022/03/20 04:24:04;;;;;;;25.15;9.75;;;;;;;;;;5063669;27;97747;-77
2022/03/20 04:26:33;;;;;;;19.52;10.52;;;;;;;;;;5053455;27;95682;-76
2022/03/20 04:28:59;;;;;;;21.73;10.05;;;;;;;;;;5058689;27;97635;-77
2022/03/20 04:31:25;;;;;;;19.67;10.02;;;;;;;;;;5054539;27;95290;-77
2022/03/20 04:33:53;;;;;;;21.17;10.38;;;;;;;;;;5050191;27;97033;-77
2022/03/20 04:36:24;;;;;;;21.95;11.20;;;;;;;;;;5049663;27;97269;-76
2022/03/20 04:38:51;;;;;;;18.85;10.60;;;;;;;;;;5056145;27;95468;-77
2022/03/20 04:41:18;;;;;;;29.10;11.77;;;;;;;;;;5064698;27;97115;-77
2022/03/20 04:43:44;;;;;;;23.63;10.98;;;;;;;;;;5049783;27;97228;-76
2022/03/20 04:46:11;;;;;;;23.20;10.65;;;;;;;;;;5052340;27;96609;-75
2022/03/20 04:59:37;;;;;;;20.48;11.73;;;;;;;;;;5057126;27;95654;-77
2022/03/20 05:02:03;;;;;;;21.58;10.90;;;;;;;;;;5061195;27;97064;-76
2022/03/20 05:04:30;;;;;;;26.77;11.68;;;;;;;;;;5068422;27;96281;-77
2022/03/20 05:06:56;;;;;;;21.20;10.52;;;;;;;;;;5067319;27;95310;-75
2022/03/20 05:14:56;;;;;;;20.80;11.25;;;;;;;;;;5067582;27;97001;-77
2022/03/20 05:17:23;;;;;;;23.42;12.00;;;;;;;;;;5054847;27;97177;-75
2022/03/20 05:19:49;;;;;;;20.27;12.07;;;;;;;;;;5067851;27;95580;-75
2022/03/20 05:22:15;;;;;;;22.13;12.10;;;;;;;;;;5067581;27;97221;-75
2022/03/20 05:24:41;;;;;;;22.90;12.18;;;;;;;;;;5055581;27;97280;-76
2022/03/20 05:27:08;;;;;;;23.65;12.05;;;;;;;;;;5066564;27;95281;-76
2022/03/20 05:29:35;;;;;;;25.10;10.95;;;;;;;;;;5065556;27;96743;-75
2022/03/20 18:09:21;;;;;;;53.42;30.00;;;;;;;;;;5014428;28;95648;-76
2022/03/20 18:11:48;;;;;;;47.38;28.20;;;;;;;;;;5021587;28;96727;-74
2022/03/20 18:14:14;;;;;;;46.80;28.13;;;;;;;;;;5021237;28;97838;-76
2022/03/20 18:16:41;;;;;;;50.33;30.08;;;;;;;;;;5022859;27;95402;-76
2022/03/20 18:19:07;;;;;;;50.28;29.13;;;;;;;;;;5023237;28;96669;-74
2022/03/20 18:21:34;;;;;;;56.63;30.83;;;;;;;;;;5022918;28;97270;-74
2022/03/20 18:24:00;;;;;;;55.40;32.17;;;;;;;;;;5025838;28;95650;-75
2022/03/20 18:26:27;;;;;;;51.40;30.20;;;;;;;;;;5022452;28;97326;-76
2022/03/20 18:28:53;;;;;;;53.50;32.25;;;;;;;;;;5023127;28;95347;-76
2022/03/20 18:31:20;;;;;;;54.28;32.63;;;;;;;;;;5022427;28;96532;-74
2022/03/20 18:33:46;;;;;;;54.95;34.15;;;;;;;;;;5023721;28;97284;-75
2022/03/20 18:36:16;;;;;;;56.10;35.20;;;;;;;;;;5022759;28;95971;-78
2022/03/20 18:38:43;;;;;;;50.80;31.65;;;;;;;;;;5023731;28;96753;-75
2022/03/20 18:41:09;;;;;;;52.90;30.67;;;;;;;;;;5023203;28;98019;-75
2022/03/20 18:43:37;;;;;;;51.90;29.42;;;;;;;;;;5022857;28;95509;-73
2022/03/20 18:46:04;;;;;;;51.72;30.73;;;;;;;;;;5026191;27;97038;-74
2022/03/20 18:48:30;;;;;;;52.20;30.05;;;;;;;;;;5021730;27;95542;-73
2022/03/20 18:50:57;;;;;;;48.53;29.75;;;;;;;;;;5023135;28;96759;-74
2022/03/20 18:53:23;;;;;;;49.83;30.73;;;;;;;;;;5023247;28;96259;-76
2022/03/20 18:55:52;;;;;;;50.25;31.10;;;;;;;;;;5023274;27;96771;-73
2022/03/20 18:58:18;;;;;;;54.78;31.45;;;;;;;;;;5022202;28;96838;-74
2022/03/20 19:00:45;;;;;;;52.78;31.88;;;;;;;;;;5022960;27;97713;-76
2022/03/20 19:03:13;;;;;;;57.40;32.90;;;;;;;;;;5042129;27;97086;-73
2022/03/20 19:05:40;;;;;;;56.03;32.75;;;;;;;;;;5024124;27;96804;-72
2022/03/20 19:08:06;;;;;;;58.22;35.40;;;;;;;;;;5028521;27;97429;-73
2022/03/20 19:10:33;;;;;;;54.47;34.17;;;;;;;;;;5042843;27;96687;-74
2022/03/20 19:13:01;;;;;;;55.35;33.85;;;;;;;;;;5041561;27;97591;-75
2022/03/20 19:15:27;;;;;;;56.42;32.53;;;;;;;;;;5025903;28;95295;-75
2022/03/20 19:17:54;;;;;;;58.97;32.70;;;;;;;;;;5027829;28;95830;-73
2022/03/20 19:20:21;;;;;;;55.25;32.13;;;;;;;;;;5026211;28;95565;-73
2022/03/20 19:22:51;;;;;;;51.78;31.40;;;;;;;;;;5025667;28;96264;-76
2022/03/20 19:25:19;;;;;;;57.22;30.75;;;;;;;;;;5024892;28;97178;-73
2022/03/20 19:27:46;;;;;;;54.65;32.38;;;;;;;;;;5027166;28;96986;-74
2022/03/20 19:30:13;;;;;;;55.20;32.17;;;;;;;;;;5028978;28;95767;-77
2022/03/20 19:32:39;;;;;;;55.72;32.78;;;;;;;;;;5028238;28;97422;-76
2022/03/20 19:40:36;;;;;;;47.90;31.00;;;;;;;;;;5028506;28;97437;-75
2022/03/20 19:43:03;;;;;;;54.72;32.47;;;;;;;;;;5029315;28;96576;-73
2022/03/20 19:45:30;;;;;;;50.63;31.15;;;;;;;;;;5028825;28;96797;-75
2022/03/20 19:47:56;;;;;;;55.55;32.72;;;;;;;;;;5028802;28;96554;-74
2022/03/20 19:50:24;;;;;;;57.08;33.38;;;;;;;;;;5028381;28;95608;-73
2022/03/20 19:52:51;;;;;;;53.42;33.53;;;;;;;;;;5030379;28;95845;-73
2022/03/20 19:55:19;;;;;;;50.05;32.75;;;;;;;;;;5028666;27;95342;-73
2022/03/20 19:57:45;;;;;;;54.38;33.75;;;;;;;;;;5029488;28;96742;-72
2022/03/20 20:00:12;;;;;;;52.13;33.00;;;;;;;;;;5028400;28;97385;-72
2022/03/20 20:02:38;;;;;;;56.78;35.22;;;;;;;;;;5028410;28;95389;-74
2022/03/20 20:05:05;;;;;;;53.90;33.60;;;;;;;;;;5028386;28;96688;-75
2022/03/20 20:07:31;;;;;;;54.60;34.10;;;;;;;;;;5010488;28;97332;-72
2022/03/20 20:09:59;;;;;;;63.60;35.13;;;;;;;;;;5029278;27;95819;-72
2022/03/20 20:12:25;;;;;;;56.47;34.45;;;;;;;;;;5028873;28;96786;-73
2022/03/20 20:14:52;;;;;;;55.80;34.08;;;;;;;;;;5030622;28;95426;-75
2022/03/20 20:17:23;;;;;;;57.63;33.05;;;;;;;;;;5028815;28;96641;-75
2022/03/20 20:19:50;;;;;;;60.65;35.58;;;;;;;;;;5026892;28;97444;-74
2022/03/20 20:22:17;;;;;;;72.03;46.63;;;;;;;;;;5027843;28;95612;-72
2022/03/20 20:24:44;;;;;;;68.07;43.70;;;;;;;;;;5025041;27;95809;-72
2022/03/20 20:27:11;;;;;;;64.57;41.72;;;;;;;;;;5027678;28;96277;-72
2022/03/20 20:29:37;;;;;;;56.25;33.70;;;;;;;;;;5028303;28;95774;-72
2022/03/20 20:32:04;;;;;;;55.95;33.85;;;;;;;;;;5028912;28;96661;-75
2022/03/20 20:34:31;;;;;;;55.97;32.92;;;;;;;;;;5031288;28;97534;-72
2022/03/20 20:36:57;;;;;;;58.80;33.75;;;;;;;;;;5028919;28;96983;-73
2022/03/20 20:39:23;;;;;;;55.35;33.50;;;;;;;;;;5028943;28;97369;-71
2022/03/20 20:41:50;;;;;;;81.22;43.55;;;;;;;;;;5021566;28;95611;-72
2022/03/20 20:44:17;;;;;;;79.50;41.05;;;;;;;;;;5028196;28;97128;-72
2022/03/20 20:46:43;;;;;;;69.30;39.15;;;;;;;;;;5028700;28;97144;-73
2022/03/20 20:49:16;;;;;;;72.40;40.53;;;;;;;;;;5028452;28;96833;-76
2022/03/20 20:51:49;;;;;;;70.80;41.55;;;;;;;;;;5028518;28;95971;-77
2022/03/20 20:54:17;;;;;;;72.75;41.30;;;;;;;;;;5028113;28;97402;-78
2022/03/20 20:56:46;;;;;;;71.18;40.05;;;;;;;;;;5031216;28;95345;-77
2022/03/20 20:59:12;;;;;;;69.03;39.55;;;;;;;;;;5028484;28;97459;-77
2022/03/20 21:01:39;;;;;;;68.20;39.25;;;;;;;;;;5008356;28;95460;-77
2022/03/20 21:04:06;;;;;;;63.70;38.05;;;;;;;;;;5028567;28;96674;-77
2022/03/20 21:06:32;;;;;;;67.22;38.65;;;;;;;;;;5028090;28;97431;-76
2022/03/20 21:11:47;;;;;;;62.78;36.17;;;;;;;;;;5028344;28;96827;-77
2022/03/20 21:14:17;;;;;;;63.45;35.50;;;;;;;;;;5028022;28;97366;-76
2022/03/20 21:16:44;;;;;;;63.30;36.47;;;;;;;;;;5028320;28;95197;-73
2022/03/20 21:19:11;;;;;;;66.45;38.13;;;;;;;;;;5031307;28;96733;-74
2022/03/20 21:21:37;;;;;;;59.65;35.90;;;;;;;;;;5028865;28;95771;-74
2022/03/20 21:24:03;;;;;;;62.83;36.15;;;;;;;;;;5028477;28;98167;-76
2022/03/20 21:26:30;;;;;;;61.22;37.15;;;;;;;;;;5010460;28;97196;-74
2022/03/20 21:28:56;;;;;;;61.13;35.58;;;;;;;;;;5022044;28;95188;-75
2022/03/20 21:31:22;;;;;;;65.20;37.20;;;;;;;;;;5010163;28;95951;-74
2022/03/20 21:33:49;;;;;;;63.20;38.03;;;;;;;;;;5028644;28;96162;-73
2022/03/20 21:36:15;;;;;;;58.03;36.65;;;;;;;;;;5027510;28;95406;-76
2022/03/20 21:38:41;;;;;;;60.53;37.65;;;;;;;;;;5028382;28;96810;-72
2022/03/20 21:41:08;;;;;;;58.58;36.83;;;;;;;;;;5031125;28;97391;-74
2022/03/20 21:43:34;;;;;;;65.22;37.03;;;;;;;;;;5028368;28;97038;-75
2022/03/20 21:46:00;;;;;;;66.15;37.42;;;;;;;;;;5027090;28;97309;-74
2022/03/20 21:48:27;;;;;;;71.18;38.95;;;;;;;;;;5028225;28;95280;-73
2022/03/20 21:50:54;;;;;;;67.28;39.35;;;;;;;;;;5028675;28;96867;-73
2022/03/20 21:53:21;;;;;;;74.43;40.42;;;;;;;;;;5006007;28;97283;-73
2022/03/20 21:55:49;;;;;;;69.40;40.13;;;;;;;;;;5027871;28;95587;-73
2022/03/20 21:58:16;;;;;;;66.78;39.03;;;;;;;;;;5027597;28;95691;-74
2022/03/20 22:00:43;;;;;;;69.68;38.97;;;;;;;;;;5027418;28;97353;-73
2022/03/20 22:03:10;;;;;;;64.25;37.20;;;;;;;;;;5030984;28;95555;-73
2022/03/20 22:05:38;;;;;;;61.08;36.78;;;;;;;;;;5027775;28;97475;-73
2022/03/20 22:08:06;;;;;;;61.72;35.13;;;;;;;;;;5027549;28;95345;-74
2022/03/20 22:10:36;;;;;;;61.10;35.55;;;;;;;;;;5010083;28;97259;-74
2022/03/20 22:13:04;;;;;;;57.42;34.60;;;;;;;;;;5027264;28;97671;-72
2022/03/20 22:15:31;;;;;;;62.38;36.47;;;;;;;;;;5027419;28;95803;-74
2022/03/20 22:17:58;;;;;;;59.78;35.38;;;;;;;;;;5018173;28;96727;-74
2022/03/20 22:20:24;;;;;;;69.78;38.10;;;;;;;;;;4994485;28;97412;-75
2022/03/20 22:22:50;;;;;;;69.88;37.75;;;;;;;;;;5020557;28;95290;-73
2022/03/20 22:25:17;;;;;;;68.15;37.17;;;;;;;;;;5024241;28;97316;-72
2022/03/20 22:27:43;;;;;;;62.88;36.45;;;;;;;;;;5027403;28;95544;-74
2022/03/20 22:30:13;;;;;;;70.05;41.35;;;;;;;;;;5025965;28;97156;-74
2022/03/20 22:32:41;;;;;;;75.25;42.67;;;;;;;;;;5027269;28;97586;-73
2022/03/20 22:37:52;;;;;;;74.78;39.13;;;;;;;;;;5027482;28;96655;-73
2022/03/20 22:40:20;;;;;;;77.82;39.67;;;;;;;;;;5027308;28;97192;-72
2022/03/20 22:42:47;;;;;;;70.50;37.78;;;;;;;;;;5027137;28;95644;-75
2022/03/20 22:45:13;;;;;;;67.60;39.08;;;;;;;;;;5030510;28;96510;-73
2022/03/20 22:47:40;;;;;;;62.30;35.55;;;;;;;;;;5027421;27;95856;-73
2022/03/20 22:50:11;;;;;;;59.42;35.70;;;;;;;;;;5029172;28;97009;-72
2022/03/20 22:52:39;;;;;;;68.53;38.15;;;;;;;;;;5030998;28;97322;-73
2022/03/20 22:55:08;;;;;;;70.75;39.72;;;;;;;;;;5010950;28;95309;-73
2022/03/20 22:57:34;;;;;;;66.93;38.45;;;;;;;;;;4993544;28;96869;-73
2022/03/20 23:00:01;;;;;;;66.97;38.35;;;;;;;;;;5025429;28;97555;-73
2022/03/20 23:02:27;;;;;;;66.32;38.55;;;;;;;;;;5030920;28;95326;-74
2022/03/20 23:04:54;;;;;;;66.68;38.70;;;;;;;;;;5030766;28;97375;-73
2022/03/20 23:07:20;;;;;;;69.50;38.42;;;;;;;;;;5034312;28;97357;-73
2022/03/20 23:09:46;;;;;;;65.75;38.08;;;;;;;;;;5030599;28;97049;-74
2022/03/20 23:12:13;;;;;;;74.35;37.72;;;;;;;;;;5030956;28;97297;-72
2022/03/20 23:14:40;;;;;;;69.53;39.00;;;;;;;;;;5031182;28;95312;-73
2022/03/20 23:17:07;;;;;;;69.75;36.65;;;;;;;;;;5030741;28;97518;-73
2022/03/20 23:19:33;;;;;;;67.20;37.85;;;;;;;;;;5030627;28;97261;-74
2022/03/20 23:22:00;;;;;;;65.32;36.40;;;;;;;;;;5031028;28;95349;-74
2022/03/20 23:24:27;;;;;;;66.15;37.15;;;;;;;;;;5030213;28;96866;-76
2022/03/20 23:26:54;;;;;;;65.70;37.72;;;;;;;;;;5030842;28;97518;-76
2022/03/20 23:29:20;;;;;;;64.82;36.80;;;;;;;;;;5033851;28;95378;-75
2022/03/20 23:31:47;;;;;;;131.00;53.22;;;;;;;;;;5012482;28;97425;-75
2022/03/20 23:34:13;;;;;;;86.38;42.80;;;;;;;;;;5030518;28;95448;-77
2022/03/20 23:36:40;;;;;;;81.70;41.30;;;;;;;;;;5031179;28;96964;-75
2022/03/20 23:39:07;;;;;;;79.75;42.25;;;;;;;;;;5029405;28;97317;-76
2022/03/20 23:44:19;;;;;;;71.00;40.03;;;;;;;;;;5030394;28;96800;-74
2022/03/20 23:46:45;;;;;;;65.50;37.30;;;;;;;;;;5029855;28;96294;-78
2022/03/20 23:49:12;;;;;;;61.97;35.85;;;;;;;;;;5030533;28;95937;-76
2022/03/20 23:51:38;;;;;;;65.60;36.75;;;;;;;;;;5033362;28;96980;-76
2022/03/20 23:54:05;;;;;;;59.67;35.47;;;;;;;;;;5029270;28;95467;-76
2022/03/20 23:56:32;;;;;;;63.10;34.35;;;;;;;;;;5030504;28;96900;-78
2022/03/20 23:58:58;;;;;;;69.35;38.28;;;;;;;;;;5028795;28;97628;-74
